MCF1TR TIST-TNCM
Flight info
| Callsign | MCF1TR |
|---|---|
| Flight time | 0h 35m |
| Altitude | 15000 |
| Route | STT A638 PJM |
| Aircraft | A320/M-SDE3FGHIRWY/LB1 |
Departure
| Time | 2026-04-24 09:41 |
|---|---|
| Airport | Cyril E. King Airport (TIST) |
Arrival
| Time | 2026-04-24 10:16 |
|---|---|
| Airport | Princess Juliana International Airport (TNCM) |
| Time | Latitude | Longitude | Altitude | Speed | Heading |
|---|---|---|---|---|---|
| 2026-04-24 08:57 | 18.33455 | -64.97283 | 27 ft | 0 kts | 43° |
| 2026-04-24 09:31 | 18.33451 | -64.97286 | 27 ft | 4 kts | 41° |
| 2026-04-24 09:32 | 18.33429 | -64.97303 | 27 ft | 4 kts | 20° |
| 2026-04-24 09:32 | 18.33406 | -64.97306 | 27 ft | 4 kts | 332° |
| 2026-04-24 09:32 | 18.33398 | -64.97301 | 27 ft | 0 kts | 313° |
| 2026-04-24 09:36 | 18.33412 | -64.97317 | 27 ft | 13 kts | 313° |
| 2026-04-24 09:36 | 18.33497 | -64.97392 | 27 ft | 16 kts | 343° |
| 2026-04-24 09:36 | 18.33608 | -64.97418 | 27 ft | 16 kts | 308° |
| 2026-04-24 09:36 | 18.33612 | -64.97530 | 27 ft | 15 kts | 266° |
| 2026-04-24 09:37 | 18.33607 | -64.97633 | 27 ft | 13 kts | 268° |
| 2026-04-24 09:37 | 18.33603 | -64.97730 | 28 ft | 13 kts | 268° |
| 2026-04-24 09:37 | 18.33599 | -64.97823 | 28 ft | 12 kts | 267° |
| 2026-04-24 09:37 | 18.33595 | -64.97909 | 27 ft | 11 kts | 267° |
| 2026-04-24 09:38 | 18.33592 | -64.98002 | 27 ft | 16 kts | 268° |
| 2026-04-24 09:38 | 18.33587 | -64.98115 | 27 ft | 15 kts | 267° |
| 2026-04-24 09:38 | 18.33582 | -64.98217 | 27 ft | 13 kts | 267° |
| 2026-04-24 09:38 | 18.33587 | -64.98308 | 27 ft | 12 kts | 295° |
| 2026-04-24 09:39 | 18.33658 | -64.98330 | 27 ft | 10 kts | 2° |
| 2026-04-24 09:39 | 18.33691 | -64.98273 | 27 ft | 11 kts | 89° |
| 2026-04-24 09:39 | 18.33691 | -64.98265 | 27 ft | 0 kts | 88° |
| 2026-04-24 09:40 | 18.33691 | -64.98260 | 27 ft | 5 kts | 88° |
| 2026-04-24 09:40 | 18.33702 | -64.97995 | 28 ft | 75 kts | 88° |
| 2026-04-24 09:40 | 18.33737 | -64.97201 | 28 ft | 139 kts | 87° |
| 2026-04-24 09:40 | 18.33779 | -64.96102 | 525 ft | 150 kts | 88° |
| 2026-04-24 09:41 | 18.33819 | -64.95008 | 1329 ft | 149 kts | 89° |
| 2026-04-24 09:41 | 18.33863 | -64.93924 | 2177 ft | 149 kts | 89° |
| 2026-04-24 09:41 | 18.33766 | -64.92769 | 2667 ft | 168 kts | 100° |
| 2026-04-24 09:41 | 18.33543 | -64.91480 | 3073 ft | 191 kts | 101° |
| 2026-04-24 09:42 | 18.33282 | -64.90026 | 3533 ft | 214 kts | 101° |
| 2026-04-24 09:42 | 18.32995 | -64.88392 | 3979 ft | 239 kts | 101° |
| 2026-04-24 09:42 | 18.32689 | -64.86592 | 4573 ft | 259 kts | 100° |
| 2026-04-24 09:42 | 18.32373 | -64.84689 | 5440 ft | 268 kts | 99° |
| 2026-04-24 09:43 | 18.32055 | -64.82739 | 6400 ft | 272 kts | 99° |
| 2026-04-24 09:43 | 18.31734 | -64.80764 | 7278 ft | 276 kts | 99° |
| 2026-04-24 09:43 | 18.31411 | -64.78753 | 8134 ft | 282 kts | 99° |
| 2026-04-24 09:43 | 18.31080 | -64.76692 | 8954 ft | 288 kts | 99° |
| 2026-04-24 09:44 | 18.30858 | -64.75309 | 9500 ft | 292 kts | 99° |
| 2026-04-24 09:44 | 18.30515 | -64.73172 | 10205 ft | 303 kts | 100° |
| 2026-04-24 09:44 | 18.30150 | -64.70903 | 10509 ft | 326 kts | 100° |
| 2026-04-24 09:44 | 18.29758 | -64.68464 | 10766 ft | 350 kts | 100° |
| 2026-04-24 09:45 | 18.29338 | -64.65855 | 10959 ft | 373 kts | 100° |
| 2026-04-24 09:45 | 18.28891 | -64.63089 | 11109 ft | 394 kts | 100° |
| 2026-04-24 09:45 | 18.28423 | -64.60200 | 11544 ft | 405 kts | 100° |
| 2026-04-24 09:45 | 18.27947 | -64.57254 | 12153 ft | 410 kts | 100° |
| 2026-04-24 09:46 | 18.27466 | -64.54280 | 12776 ft | 414 kts | 100° |
| 2026-04-24 09:46 | 18.26980 | -64.51284 | 13367 ft | 418 kts | 100° |
| 2026-04-24 09:46 | 18.26488 | -64.48253 | 13937 ft | 422 kts | 100° |
| 2026-04-24 09:46 | 18.25992 | -64.45199 | 14417 ft | 426 kts | 100° |
| 2026-04-24 09:47 | 18.25495 | -64.42121 | 14659 ft | 427 kts | 100° |
| 2026-04-24 09:47 | 18.24998 | -64.39033 | 14888 ft | 429 kts | 100° |
| 2026-04-24 09:47 | 18.24496 | -64.35927 | 14993 ft | 434 kts | 100° |
| 2026-04-24 09:47 | 18.23982 | -64.32771 | 15018 ft | 440 kts | 100° |
| 2026-04-24 09:48 | 18.23460 | -64.29587 | 15017 ft | 442 kts | 100° |
| 2026-04-24 09:48 | 18.22936 | -64.26407 | 15017 ft | 442 kts | 100° |
| 2026-04-24 09:48 | 18.22409 | -64.23214 | 15020 ft | 442 kts | 100° |
| 2026-04-24 09:48 | 18.21886 | -64.20027 | 15020 ft | 442 kts | 100° |
| 2026-04-24 09:49 | 18.21363 | -64.16844 | 15018 ft | 442 kts | 100° |
| 2026-04-24 09:49 | 18.20838 | -64.13657 | 15020 ft | 442 kts | 100° |
| 2026-04-24 09:49 | 18.20313 | -64.10468 | 15020 ft | 442 kts | 100° |
| 2026-04-24 09:49 | 18.19795 | -64.07286 | 15019 ft | 442 kts | 100° |
| 2026-04-24 09:50 | 18.19281 | -64.04101 | 14832 ft | 441 kts | 100° |
| 2026-04-24 09:50 | 18.18768 | -64.00939 | 14270 ft | 437 kts | 100° |
| 2026-04-24 09:50 | 18.18251 | -63.97790 | 13501 ft | 434 kts | 100° |
| 2026-04-24 09:50 | 18.17738 | -63.94686 | 12768 ft | 429 kts | 100° |
| 2026-04-24 09:51 | 18.17229 | -63.91617 | 12063 ft | 423 kts | 100° |
| 2026-04-24 09:51 | 18.16728 | -63.88596 | 11388 ft | 416 kts | 100° |
| 2026-04-24 09:51 | 18.16240 | -63.85663 | 11196 ft | 397 kts | 100° |
| 2026-04-24 09:51 | 18.15779 | -63.82871 | 11076 ft | 379 kts | 100° |
| 2026-04-24 09:52 | 18.15341 | -63.80205 | 10958 ft | 361 kts | 100° |
| 2026-04-24 09:52 | 18.14921 | -63.77663 | 10840 ft | 346 kts | 100° |
| 2026-04-24 09:52 | 18.14516 | -63.75224 | 10722 ft | 332 kts | 100° |
| 2026-04-24 09:52 | 18.14125 | -63.72879 | 10602 ft | 319 kts | 100° |
| 2026-04-24 09:53 | 18.13749 | -63.70623 | 10481 ft | 308 kts | 100° |
| 2026-04-24 09:53 | 18.13384 | -63.68424 | 10246 ft | 302 kts | 100° |
| 2026-04-24 09:53 | 18.12969 | -63.66282 | 10135 ft | 298 kts | 107° |
| 2026-04-24 09:53 | 18.12320 | -63.64215 | 10013 ft | 297 kts | 109° |
| 2026-04-24 09:54 | 18.11670 | -63.62147 | 9680 ft | 299 kts | 108° |
| 2026-04-24 09:54 | 18.11021 | -63.60071 | 9310 ft | 297 kts | 108° |
| 2026-04-24 09:54 | 18.10389 | -63.58042 | 8910 ft | 295 kts | 108° |
| 2026-04-24 09:54 | 18.09753 | -63.56007 | 8558 ft | 290 kts | 108° |
| 2026-04-24 09:55 | 18.09134 | -63.54029 | 8104 ft | 285 kts | 109° |
| 2026-04-24 09:55 | 18.08517 | -63.52044 | 7711 ft | 285 kts | 108° |
| 2026-04-24 09:55 | 18.07916 | -63.50094 | 7334 ft | 283 kts | 109° |
| 2026-04-24 09:55 | 18.07293 | -63.48112 | 6938 ft | 281 kts | 109° |
| 2026-04-24 09:56 | 18.06696 | -63.46227 | 6568 ft | 269 kts | 109° |
| 2026-04-24 09:56 | 18.06115 | -63.44383 | 6185 ft | 256 kts | 109° |
| 2026-04-24 09:56 | 18.05573 | -63.42667 | 5791 ft | 246 kts | 109° |
| 2026-04-24 09:56 | 18.05047 | -63.40993 | 5406 ft | 237 kts | 109° |
| 2026-04-24 09:57 | 18.04533 | -63.39360 | 5016 ft | 236 kts | 109° |
| 2026-04-24 09:57 | 18.04015 | -63.37718 | 4629 ft | 238 kts | 109° |
| 2026-04-24 09:57 | 18.03492 | -63.36064 | 4234 ft | 238 kts | 109° |
| 2026-04-24 09:57 | 18.02987 | -63.34454 | 4131 ft | 227 kts | 109° |
| 2026-04-24 09:58 | 18.02502 | -63.32912 | 3964 ft | 219 kts | 108° |
| 2026-04-24 09:58 | 18.02023 | -63.31395 | 3707 ft | 219 kts | 108° |
| 2026-04-24 09:58 | 18.01590 | -63.29855 | 3423 ft | 221 kts | 99° |
| 2026-04-24 09:58 | 18.01587 | -63.28248 | 3123 ft | 221 kts | 82° |
| 2026-04-24 09:59 | 18.01826 | -63.26650 | 2821 ft | 221 kts | 82° |
| 2026-04-24 09:59 | 18.02059 | -63.25076 | 2520 ft | 212 kts | 82° |
| 2026-04-24 09:59 | 18.02276 | -63.23587 | 2243 ft | 201 kts | 82° |
| 2026-04-24 09:59 | 18.02480 | -63.22170 | 2002 ft | 189 kts | 82° |
| 2026-04-24 10:00 | 18.02669 | -63.20862 | 1749 ft | 172 kts | 82° |
| 2026-04-24 10:00 | 18.02837 | -63.19687 | 1525 ft | 152 kts | 82° |
| 2026-04-24 10:00 | 18.02987 | -63.18636 | 1322 ft | 139 kts | 82° |
| 2026-04-24 10:00 | 18.03127 | -63.17662 | 1137 ft | 133 kts | 81° |
| 2026-04-24 10:01 | 18.03263 | -63.16716 | 968 ft | 130 kts | 82° |
| 2026-04-24 10:01 | 18.03397 | -63.15776 | 805 ft | 130 kts | 80° |
| 2026-04-24 10:01 | 18.03535 | -63.14840 | 620 ft | 130 kts | 79° |
| 2026-04-24 10:01 | 18.03681 | -63.13891 | 423 ft | 132 kts | 81° |
| 2026-04-24 10:02 | 18.03796 | -63.12931 | 271 ft | 134 kts | 78° |
| 2026-04-24 10:02 | 18.03937 | -63.11966 | 85 ft | 134 kts | 78° |
| 2026-04-24 10:02 | 18.04074 | -63.11049 | 29 ft | 114 kts | 82° |
| 2026-04-24 10:02 | 18.04211 | -63.10041 | 383 ft | 155 kts | 81° |
| 2026-04-24 10:03 | 18.04248 | -63.08923 | 1410 ft | 147 kts | 100° |
| 2026-04-24 10:03 | 18.03838 | -63.07909 | 2041 ft | 165 kts | 125° |
| 2026-04-24 10:03 | 18.02917 | -63.07091 | 2439 ft | 183 kts | 151° |
| 2026-04-24 10:03 | 18.01630 | -63.06724 | 2922 ft | 203 kts | 175° |
| 2026-04-24 10:04 | 18.00188 | -63.06929 | 3436 ft | 218 kts | 197° |
| 2026-04-24 10:04 | 17.98818 | -63.07732 | 3931 ft | 231 kts | 215° |
| 2026-04-24 10:04 | 17.97603 | -63.08794 | 3999 ft | 226 kts | 230° |
| 2026-04-24 10:04 | 17.96918 | -63.10277 | 4016 ft | 239 kts | 252° |
| 2026-04-24 10:05 | 17.96444 | -63.12062 | 4010 ft | 261 kts | 255° |
| 2026-04-24 10:05 | 17.95996 | -63.13928 | 4011 ft | 264 kts | 255° |
| 2026-04-24 10:05 | 17.95562 | -63.15799 | 4009 ft | 263 kts | 255° |
| 2026-04-24 10:05 | 17.95182 | -63.17684 | 4005 ft | 265 kts | 264° |
| 2026-04-24 10:06 | 17.95391 | -63.19591 | 3987 ft | 265 kts | 289° |
| 2026-04-24 10:06 | 17.97826 | -63.22259 | 3289 ft | 258 kts | 342° |
| 2026-04-24 10:06 | 17.99572 | -63.22534 | 2899 ft | 253 kts | 6° |
| 2026-04-24 10:07 | 18.01246 | -63.22053 | 2508 ft | 248 kts | 30° |
| 2026-04-24 10:07 | 18.02543 | -63.20947 | 2291 ft | 231 kts | 53° |
| 2026-04-24 10:07 | 18.03275 | -63.19583 | 2126 ft | 202 kts | 72° |
| 2026-04-24 10:07 | 18.03512 | -63.18195 | 1813 ft | 188 kts | 91° |
| 2026-04-24 10:08 | 18.03466 | -63.16832 | 1732 ft | 187 kts | 91° |
| 2026-04-24 10:08 | 18.03385 | -63.15462 | 1739 ft | 190 kts | 98° |
| 2026-04-24 10:08 | 18.02938 | -63.14144 | 2169 ft | 195 kts | 122° |
| 2026-04-24 10:08 | 18.01972 | -63.13139 | 2793 ft | 201 kts | 151° |
| 2026-04-24 10:09 | 18.00605 | -63.12750 | 2999 ft | 205 kts | 171° |
| 2026-04-24 10:09 | 17.99193 | -63.12637 | 3039 ft | 203 kts | 175° |
| 2026-04-24 10:09 | 17.97783 | -63.12568 | 3036 ft | 202 kts | 175° |
| 2026-04-24 10:09 | 17.96403 | -63.12804 | 3029 ft | 204 kts | 207° |
| 2026-04-24 10:10 | 17.95408 | -63.13853 | 3037 ft | 207 kts | 244° |
| 2026-04-24 10:10 | 17.95061 | -63.15322 | 3042 ft | 210 kts | 263° |
| 2026-04-24 10:10 | 17.94917 | -63.16852 | 3037 ft | 210 kts | 265° |
| 2026-04-24 10:10 | 17.94804 | -63.18377 | 3031 ft | 209 kts | 265° |
| 2026-04-24 10:11 | 17.94694 | -63.19911 | 3031 ft | 211 kts | 265° |
| 2026-04-24 10:11 | 17.94585 | -63.21445 | 3031 ft | 211 kts | 265° |
| 2026-04-24 10:11 | 17.94536 | -63.22981 | 3023 ft | 211 kts | 279° |
| 2026-04-24 10:11 | 17.95060 | -63.24389 | 3029 ft | 208 kts | 309° |
| 2026-04-24 10:12 | 17.96126 | -63.25383 | 2947 ft | 204 kts | 328° |
| 2026-04-24 10:12 | 17.97402 | -63.25994 | 2482 ft | 200 kts | 350° |
| 2026-04-24 10:12 | 17.98767 | -63.26112 | 2059 ft | 196 kts | 9° |
| 2026-04-24 10:12 | 18.00068 | -63.25757 | 1764 ft | 190 kts | 27° |
| 2026-04-24 10:13 | 18.01187 | -63.24970 | 1731 ft | 194 kts | 46° |
| 2026-04-24 10:13 | 18.01984 | -63.23884 | 1722 ft | 185 kts | 63° |
| 2026-04-24 10:13 | 18.02404 | -63.22660 | 1735 ft | 165 kts | 80° |
| 2026-04-24 10:13 | 18.02562 | -63.21560 | 1732 ft | 144 kts | 82° |
| 2026-04-24 10:14 | 18.02705 | -63.20563 | 1730 ft | 135 kts | 83° |
| 2026-04-24 10:14 | 18.02845 | -63.19592 | 1738 ft | 133 kts | 82° |
| 2026-04-24 10:14 | 18.02983 | -63.18639 | 1738 ft | 131 kts | 82° |
| 2026-04-24 10:14 | 18.03119 | -63.17697 | 1730 ft | 131 kts | 82° |
| 2026-04-24 10:15 | 18.03255 | -63.16740 | 1463 ft | 133 kts | 82° |
| 2026-04-24 10:15 | 18.03414 | -63.15772 | 1096 ft | 135 kts | 80° |
| 2026-04-24 10:15 | 18.03544 | -63.14803 | 771 ft | 133 kts | 82° |
| 2026-04-24 10:15 | 18.03677 | -63.13839 | 456 ft | 132 kts | 82° |
| 2026-04-24 10:16 | 18.03803 | -63.12900 | 251 ft | 131 kts | 81° |
| 2026-04-24 10:16 | 18.03938 | -63.11963 | 87 ft | 130 kts | 80° |
| 2026-04-24 10:16 | 18.04068 | -63.11063 | 28 ft | 108 kts | 82° |
| 2026-04-24 10:16 | 18.04125 | -63.10655 | 28 ft | 33 kts | 82° |
| 2026-04-24 10:17 | 18.04118 | -63.10513 | 27 ft | 14 kts | 87° |
| 2026-04-24 10:17 | 18.04145 | -63.10509 | 28 ft | 4 kts | 272° |
| 2026-04-24 10:17 | 18.04141 | -63.10547 | 28 ft | 10 kts | 265° |
| 2026-04-24 10:17 | 18.04123 | -63.10673 | 27 ft | 19 kts | 261° |
| 2026-04-24 10:18 | 18.04105 | -63.10802 | 27 ft | 17 kts | 261° |
| 2026-04-24 10:18 | 18.04088 | -63.10921 | 27 ft | 16 kts | 261° |
| 2026-04-24 10:18 | 18.04136 | -63.10999 | 28 ft | 14 kts | 340° |
| 2026-04-24 10:18 | 18.04163 | -63.11076 | 29 ft | 12 kts | 261° |
| 2026-04-24 10:19 | 18.04151 | -63.11160 | 28 ft | 11 kts | 262° |
| 2026-04-24 10:19 | 18.04140 | -63.11240 | 28 ft | 11 kts | 262° |
| 2026-04-24 10:19 | 18.04157 | -63.11302 | 28 ft | 9 kts | 334° |
| 2026-04-24 10:19 | 18.04218 | -63.11314 | 29 ft | 9 kts | 335° |
| 2026-04-24 10:20 | 18.04260 | -63.11353 | 29 ft | 8 kts | 336° |
| 2026-04-24 10:20 | 18.04309 | -63.11360 | 29 ft | 6 kts | 352° |
| 2026-04-24 10:20 | 18.04331 | -63.11364 | 29 ft | 0 kts | 351° |